If you wish to contribute or participate in the discussions about articles you are invited to join SKYbrary as a registered user

 Actions

Rodez-Marcillac Airport

From SKYbrary Wiki

LFCR
Airport
ICAO: LFCR – IATA: RDZ
Summary
Name Rodez-Marcillac Airport
Region Europe
Territory France FR.gif
Location , Midi-Pyrenees
Serving Rodez
Elevation 582.168 m
1,910 ft
1,910 ft582.168 m
Type medium airport
Coordinates 44° 24' 28.33" N, 2° 28' 57.62" E
Runways
Designator Length Width Surface ROPS
13/31 2040 m6,692.913 ft
45 m147.638 ft
ASP /


METAR
Observation LFCR 230130Z AUTO 14004KT CAVOK 15/13 Q1023 NOSIG
Station Rodez
Date/Time 23 August 2019 01:30:00
Wind direction 140°
Wind speed 04 kts
Lowest cloud amount clouds and visibility OK
Temperature 15°C
Dew point 13°C
Humidity 87%
QNH 1023 hPa
Weather condition n/a